Rechercher aéroport 
image banner adimage banner ad
image banner ad

VIGG - Kangra

Situé à Dharamshala, India

ICAO - VIGG, IATA - DHM

Données fournies par Airmate  

Information générale

Coordonnées: N32°9'53" E76°15'44"
Élévation : 2525 feet MSL.
 
Évalué:
Voir évaluations: [VIEW]


Voir autres Aéroports à Himachal Pradesh

Données opérationnelles

Accessible au public
Heure actuelle UTC:
Heure actuelle locale:
Météo
TAF: TAF VIGG 050500Z 0506/0515 15005KT 5000 HZ SCT030 BKN090 BECMG 0509/0512 24008KT 3000 TSRA FEW035CB BKN080
Voir NOTAMs / SUP AIP / TFR affectant cet aéroport [VIEW]
Fréquences de communication: [VIEW]

Pistes:

Identifiant RWYQFULongueur (ft)Largeur (ft)SurfaceLDA (ft)
15148°451498ASP
33328°451498

Coordonnées de l'aéroport

Adresse: Dharamshala India

Vue satellite de VIGG